• Join FlightAware (Why Join?)
  • Login
  • US Flag 
04:32PM EST


 

Airport Tracker/Info


-or-


 

Live Flight TrackerFlight Track Log ✈ CTL22 ✈ 11-Jul-2013 ✈ KBKL - KGRR

Flight Track Log - Related Links

Times and Time Zones

All times are in EDT time to prevent confusion due to time zone crossing. See the CTL22 flight status page for this flight to view local times or setup timezone preferences in your user account.

Time Position Orientation Groundspeed Altitude Reporting Facility
EDT Latitude Longitude Course Direction KTS MPH feet Rate Location/Type
09:58PM 42.0572 -82.8036 299° West 159 183 6,000  Level Cleveland Center
09:59PM 42.0792 -82.8575 299° West 159 183 6,100  Climbing Cleveland Center
10:00PM 42.1011 -82.9117 299° West 165 190 6,000  Descending Cleveland Center
10:01PM 42.1142 -82.9792 285° West 161 185 6,100  Climbing Cleveland Center
10:02PM 42.1236 -83.0328 283° West 162 186 6,000  Descending Cleveland Center
10:03PM 42.1411 -83.0811 296° West 165 190 6,100  Climbing Cleveland Center
10:04PM 42.1586 -83.1461 290° West 165 190 6,100 -60 Level Cleveland Center
10:05PM 42.1761 -83.1972 295° West 164 189 6,000 -60 Descending Cleveland Center
10:06PM 42.1958 -83.2514 301° West 161 185 6,000  Level Cleveland Center
10:07PM 42.2133 -83.3025 295° West 159 183 6,100  Climbing Cleveland Center
10:08PM 42.2286 -83.3567 291° West 158 182 6,100  Level Cleveland Center
10:09PM 42.2503 -83.4081 300° West 155 178 6,100  Level Cleveland Center
10:10PM 42.2697 -83.4678 294° West 156 180 6,100 -60 Level Cleveland Center
10:11PM 42.2872 -83.5192 295° West 158 182 6,000 -60 Descending Cleveland Center
10:12PM 42.3067 -83.5706 297° West 159 183 6,000  Level Cleveland Center
10:13PM 42.3278 -83.6417 292° West 162 186 6,000  Level Cleveland Center
10:14PM 42.3431 -83.6958 291° West 162 186 6,000  Level Cleveland Center
10:15PM 42.3625 -83.7475 297° West 165 190 6,100  Climbing Cleveland Center
10:17PM 42.4081 -83.8664 297° West 163 188 6,100  Level Chicago Center
10:18PM 42.4275 -83.9219 295° West 164 189 6,100 -60 Level Chicago Center
10:19PM 42.4475 -83.9792 295° West 165 190 6,000  Descending Chicago Center
10:20PM 42.4656 -84.0342 294° West 163 188 6,200  Climbing Chicago Center
10:21PM 42.4828 -84.0911 292° West 164 189 6,100  Descending Chicago Center
10:22PM 42.5006 -84.1481 293° West 165 190 6,200  Climbing Chicago Center
10:23PM 42.5183 -84.2175 289° West 164 189 6,200  Level Chicago Center
10:24PM 42.5333 -84.2758 289° West 164 189 6,200 -60 Level Chicago Center
10:25PM 42.5489 -84.3344 290° West 166 191 6,100 -60 Descending Chicago Center
10:26PM 42.5644 -84.3931 290° West 166 191 6,100  Level Chicago Center
10:27PM 42.5800 -84.4525 290° West 168 193 6,100  Level Chicago Center
10:28PM 42.5961 -84.5106 291° West 166 191 6,200  Climbing Chicago Center
10:29PM 42.6153 -84.5675 295° West 167 192 6,200  Level Chicago Center
10:30PM 42.6367 -84.6242 297° West 168 193 6,200  Level Chicago Center
10:31PM 42.6600 -84.6939 294° West 169 194 6,200  Level Chicago Center
10:32PM 42.6739 -84.7542 287° West 169 194 6,300  Climbing Chicago Center
10:33PM 42.6872 -84.8164 286° West 171 197 6,200 -60 Descending Chicago Center
10:34PM 42.7019 -84.8750 289° West 167 192 6,200  Level Chicago Center
10:35PM 42.7158 -84.9347 288° West 166 191 6,200 -60 Level Chicago Center
10:36PM 42.7317 -84.9931 290° West 166 191 6,100 -60 Descending Chicago Center
10:37PM 42.7475 -85.0500 291° West 164 189 6,100 -360 Level Chicago Center
10:39PM 42.7706 -85.1097 299° West  Level FlightAware Approximate
10:40PM 42.7764 -85.1761 299° West 176 203 5,100  Level Chicago Center
10:41PM 42.7992 -85.2564 291° West 188 216 3,900 -1,020 Descending Chicago Center
10:42PM 42.8192 -85.3217 293° West 188 216 3,100 -720 Descending Chicago Center
10:43PM 42.8386 -85.3872 292° West 188 216 2,500 -540 Descending Chicago Center
10:44PM 42.8575 -85.4428 295° West 177 204 2,000 -600 Descending Chicago Center
10:45PM 42.8753 -85.4908 297° West 159 183 1,300 -540 Descending Chicago Center
10:46PM 42.8897 -85.5294 297° West 149 171 1,000 -300 Descending Chicago Center
10:48PM 42.8808 -85.5228 270° West  Level Estimated